sensor_id;sensor_type;location;lat;lon;timestamp;P1;durP1;ratioP1;P2;durP2;ratioP2
26820;SDS011;37186;51.394;5.454;2023-02-28T00:02:02;2.40;;;2.40;;
26820;SDS011;37186;51.394;5.454;2023-02-28T00:05:03;2.20;;;2.20;;
26820;SDS011;37186;51.394;5.454;2023-02-28T00:08:04;2.20;;;2.20;;
26820;SDS011;37186;51.394;5.454;2023-02-28T00:11:06;2.33;;;2.33;;
26820;SDS011;37186;51.394;5.454;2023-02-28T00:14:11;2.30;;;2.30;;
26820;SDS011;37186;51.394;5.454;2023-02-28T00:17:12;2.30;;;2.30;;
26820;SDS011;37186;51.394;5.454;2023-02-28T00:20:12;2.20;;;2.20;;
26820;SDS011;37186;51.394;5.454;2023-02-28T00:23:13;2.30;;;2.30;;
26820;SDS011;37186;51.394;5.454;2023-02-28T00:26:14;2.40;;;2.40;;
26820;SDS011;37186;51.394;5.454;2023-02-28T00:29:14;2.30;;;2.30;;
26820;SDS011;37186;51.394;5.454;2023-02-28T00:32:17;2.10;;;2.10;;
26820;SDS011;37186;51.394;5.454;2023-02-28T00:35:18;2.20;;;2.20;;
26820;SDS011;37186;51.394;5.454;2023-02-28T00:38:19;2.30;;;2.30;;
26820;SDS011;37186;51.394;5.454;2023-02-28T00:41:19;2.20;;;2.20;;
26820;SDS011;37186;51.394;5.454;2023-02-28T00:44:20;2.20;;;2.20;;
26820;SDS011;37186;51.394;5.454;2023-02-28T00:47:21;2.20;;;2.20;;
26820;SDS011;37186;51.394;5.454;2023-02-28T00:50:21;2.10;;;2.10;;
26820;SDS011;37186;51.394;5.454;2023-02-28T00:53:22;2.40;;;2.40;;
26820;SDS011;37186;51.394;5.454;2023-02-28T00:56:23;2.20;;;2.20;;
26820;SDS011;37186;51.394;5.454;2023-02-28T00:59:23;2.30;;;2.30;;
26820;SDS011;37186;51.394;5.454;2023-02-28T01:02:24;2.30;;;2.30;;
26820;SDS011;37186;51.394;5.454;2023-02-28T01:05:24;2.37;;;2.37;;
26820;SDS011;37186;51.394;5.454;2023-02-28T01:08:25;2.17;;;2.17;;
26820;SDS011;37186;51.394;5.454;2023-02-28T01:11:26;2.20;;;2.20;;
26820;SDS011;37186;51.394;5.454;2023-02-28T01:14:27;2.10;;;2.10;;
26820;SDS011;37186;51.394;5.454;2023-02-28T01:17:27;2.20;;;2.20;;
26820;SDS011;37186;51.394;5.454;2023-02-28T01:20:28;2.10;;;2.10;;
26820;SDS011;37186;51.394;5.454;2023-02-28T01:23:28;2.10;;;2.10;;
26820;SDS011;37186;51.394;5.454;2023-02-28T01:26:29;2.10;;;2.10;;
26820;SDS011;37186;51.394;5.454;2023-02-28T01:29:30;2.37;;;2.37;;
26820;SDS011;37186;51.394;5.454;2023-02-28T01:32:30;2.20;;;2.20;;
26820;SDS011;37186;51.394;5.454;2023-02-28T01:35:34;2.40;;;2.40;;
26820;SDS011;37186;51.394;5.454;2023-02-28T01:38:36;2.10;;;2.10;;
26820;SDS011;37186;51.394;5.454;2023-02-28T01:41:36;2.20;;;2.20;;
26820;SDS011;37186;51.394;5.454;2023-02-28T01:44:57;2.13;;;2.13;;
26820;SDS011;37186;51.394;5.454;2023-02-28T01:48:07;2.20;;;2.20;;
26820;SDS011;37186;51.394;5.454;2023-02-28T01:51:10;2.27;;;2.27;;
26820;SDS011;37186;51.394;5.454;2023-02-28T01:54:16;2.00;;;2.00;;
26820;SDS011;37186;51.394;5.454;2023-02-28T01:57:24;2.10;;;2.10;;
26820;SDS011;37186;51.394;5.454;2023-02-28T02:00:30;2.00;;;2.00;;
26820;SDS011;37186;51.394;5.454;2023-02-28T02:03:31;2.00;;;2.00;;
26820;SDS011;37186;51.394;5.454;2023-02-28T02:06:34;2.07;;;2.07;;
26820;SDS011;37186;51.394;5.454;2023-02-28T02:09:46;2.10;;;2.10;;
26820;SDS011;37186;51.394;5.454;2023-02-28T02:12:56;2.00;;;2.00;;
26820;SDS011;37186;51.394;5.454;2023-02-28T02:16:17;2.20;;;2.20;;
26820;SDS011;37186;51.394;5.454;2023-02-28T02:19:53;2.10;;;2.10;;
26820;SDS011;37186;51.394;5.454;2023-02-28T02:23:08;2.20;;;2.20;;
26820;SDS011;37186;51.394;5.454;2023-02-28T02:26:28;2.10;;;2.10;;
26820;SDS011;37186;51.394;5.454;2023-02-28T02:29:57;2.20;;;2.20;;
26820;SDS011;37186;51.394;5.454;2023-02-28T02:39:47;2.00;;;2.00;;
26820;SDS011;37186;51.394;5.454;2023-02-28T02:43:06;2.00;;;2.00;;
26820;SDS011;37186;51.394;5.454;2023-02-28T02:46:29;2.10;;;2.10;;
26820;SDS011;37186;51.394;5.454;2023-02-28T02:49:40;2.00;;;2.00;;
26820;SDS011;37186;51.394;5.454;2023-02-28T02:52:48;2.13;;;2.13;;
26820;SDS011;37186;51.394;5.454;2023-02-28T02:55:52;2.20;;;2.20;;
26820;SDS011;37186;51.394;5.454;2023-02-28T02:58:55;2.20;;;2.20;;
26820;SDS011;37186;51.394;5.454;2023-02-28T03:02:02;2.10;;;2.10;;
26820;SDS011;37186;51.394;5.454;2023-02-28T03:05:08;2.20;;;2.20;;
26820;SDS011;37186;51.394;5.454;2023-02-28T03:08:16;2.10;;;2.10;;
26820;SDS011;37186;51.394;5.454;2023-02-28T03:11:17;2.20;;;2.20;;
26820;SDS011;37186;51.394;5.454;2023-02-28T03:14:39;2.10;;;2.10;;
26820;SDS011;37186;51.394;5.454;2023-02-28T03:18:06;2.20;;;2.20;;
26820;SDS011;37186;51.394;5.454;2023-02-28T03:21:28;2.20;;;2.20;;
26820;SDS011;37186;51.394;5.454;2023-02-28T03:24:49;2.10;;;2.10;;
26820;SDS011;37186;51.394;5.454;2023-02-28T03:28:00;2.00;;;2.00;;
26820;SDS011;37186;51.394;5.454;2023-02-28T03:31:10;2.00;;;2.00;;
26820;SDS011;37186;51.394;5.454;2023-02-28T03:37:38;2.10;;;2.10;;
26820;SDS011;37186;51.394;5.454;2023-02-28T03:40:44;2.20;;;2.20;;
26820;SDS011;37186;51.394;5.454;2023-02-28T03:43:51;2.17;;;2.17;;
26820;SDS011;37186;51.394;5.454;2023-02-28T03:46:59;2.17;;;2.17;;
26820;SDS011;37186;51.394;5.454;2023-02-28T03:50:07;2.20;;;2.20;;
26820;SDS011;37186;51.394;5.454;2023-02-28T03:56:39;2.10;;;2.10;;
26820;SDS011;37186;51.394;5.454;2023-02-28T03:59:47;2.10;;;2.10;;
26820;SDS011;37186;51.394;5.454;2023-02-28T04:02:54;2.20;;;2.20;;
26820;SDS011;37186;51.394;5.454;2023-02-28T04:05:55;2.10;;;2.10;;
26820;SDS011;37186;51.394;5.454;2023-02-28T04:08:57;2.10;;;2.10;;
26820;SDS011;37186;51.394;5.454;2023-02-28T04:11:59;2.10;;;2.10;;
26820;SDS011;37186;51.394;5.454;2023-02-28T04:15:00;2.13;;;2.13;;
26820;SDS011;37186;51.394;5.454;2023-02-28T04:18:00;2.00;;;2.00;;
26820;SDS011;37186;51.394;5.454;2023-02-28T04:21:01;2.20;;;2.20;;
26820;SDS011;37186;51.394;5.454;2023-02-28T04:24:02;2.10;;;2.10;;
26820;SDS011;37186;51.394;5.454;2023-02-28T04:27:03;2.00;;;2.00;;
26820;SDS011;37186;51.394;5.454;2023-02-28T04:30:04;2.10;;;2.10;;
26820;SDS011;37186;51.394;5.454;2023-02-28T04:33:05;1.90;;;1.90;;
26820;SDS011;37186;51.394;5.454;2023-02-28T04:36:06;2.20;;;2.20;;
26820;SDS011;37186;51.394;5.454;2023-02-28T04:39:08;2.23;;;2.23;;
26820;SDS011;37186;51.394;5.454;2023-02-28T04:42:10;2.17;;;2.17;;
26820;SDS011;37186;51.394;5.454;2023-02-28T04:45:10;2.10;;;2.10;;
26820;SDS011;37186;51.394;5.454;2023-02-28T04:48:11;2.10;;;2.10;;
26820;SDS011;37186;51.394;5.454;2023-02-28T04:51:13;2.20;;;2.20;;
26820;SDS011;37186;51.394;5.454;2023-02-28T04:54:15;2.10;;;2.10;;
26820;SDS011;37186;51.394;5.454;2023-02-28T04:57:17;2.10;;;2.10;;
26820;SDS011;37186;51.394;5.454;2023-02-28T05:00:18;2.20;;;2.20;;
26820;SDS011;37186;51.394;5.454;2023-02-28T05:03:19;2.30;;;2.30;;
26820;SDS011;37186;51.394;5.454;2023-02-28T05:06:22;2.30;;;2.30;;
26820;SDS011;37186;51.394;5.454;2023-02-28T05:09:24;2.30;;;2.30;;
26820;SDS011;37186;51.394;5.454;2023-02-28T05:12:25;2.10;;;2.10;;
26820;SDS011;37186;51.394;5.454;2023-02-28T05:15:26;2.10;;;2.10;;
26820;SDS011;37186;51.394;5.454;2023-02-28T05:18:26;2.30;;;2.30;;
26820;SDS011;37186;51.394;5.454;2023-02-28T05:24:51;2.30;;;2.30;;
26820;SDS011;37186;51.394;5.454;2023-02-28T05:27:51;2.40;;;2.40;;
26820;SDS011;37186;51.394;5.454;2023-02-28T05:30:52;2.40;;;2.40;;
26820;SDS011;37186;51.394;5.454;2023-02-28T05:33:52;2.40;;;2.40;;
26820;SDS011;37186;51.394;5.454;2023-02-28T05:36:53;2.40;;;2.40;;
26820;SDS011;37186;51.394;5.454;2023-02-28T05:39:53;2.40;;;2.40;;
26820;SDS011;37186;51.394;5.454;2023-02-28T05:42:54;2.40;;;2.40;;
26820;SDS011;37186;51.394;5.454;2023-02-28T05:45:54;2.20;;;2.20;;
26820;SDS011;37186;51.394;5.454;2023-02-28T05:48:55;2.20;;;2.20;;
26820;SDS011;37186;51.394;5.454;2023-02-28T05:51:57;2.27;;;2.27;;
26820;SDS011;37186;51.394;5.454;2023-02-28T05:54:58;2.10;;;2.10;;
26820;SDS011;37186;51.394;5.454;2023-02-28T05:57:58;2.30;;;2.30;;
26820;SDS011;37186;51.394;5.454;2023-02-28T06:00:59;2.20;;;2.20;;
26820;SDS011;37186;51.394;5.454;2023-02-28T06:04:19;2.37;;;2.37;;
26820;SDS011;37186;51.394;5.454;2023-02-28T06:07:20;2.30;;;2.30;;
26820;SDS011;37186;51.394;5.454;2023-02-28T06:10:22;2.20;;;2.20;;
26820;SDS011;37186;51.394;5.454;2023-02-28T06:13:22;2.30;;;2.30;;
26820;SDS011;37186;51.394;5.454;2023-02-28T06:16:24;2.20;;;2.20;;
26820;SDS011;37186;51.394;5.454;2023-02-28T06:19:25;2.10;;;2.10;;
26820;SDS011;37186;51.394;5.454;2023-02-28T06:22:26;2.40;;;2.40;;
26820;SDS011;37186;51.394;5.454;2023-02-28T06:25:27;2.60;;;2.60;;
26820;SDS011;37186;51.394;5.454;2023-02-28T06:28:28;2.30;;;2.30;;
26820;SDS011;37186;51.394;5.454;2023-02-28T06:31:28;2.40;;;2.40;;
26820;SDS011;37186;51.394;5.454;2023-02-28T06:34:29;2.20;;;2.20;;
26820;SDS011;37186;51.394;5.454;2023-02-28T06:37:31;2.20;;;2.20;;
26820;SDS011;37186;51.394;5.454;2023-02-28T06:40:32;2.20;;;2.20;;
26820;SDS011;37186;51.394;5.454;2023-02-28T06:43:36;2.20;;;2.20;;
26820;SDS011;37186;51.394;5.454;2023-02-28T06:46:40;2.40;;;2.40;;
26820;SDS011;37186;51.394;5.454;2023-02-28T06:49:41;2.30;;;2.30;;
26820;SDS011;37186;51.394;5.454;2023-02-28T06:52:42;2.50;;;2.50;;
26820;SDS011;37186;51.394;5.454;2023-02-28T06:55:42;2.30;;;2.30;;
26820;SDS011;37186;51.394;5.454;2023-02-28T06:58:46;2.40;;;2.40;;
26820;SDS011;37186;51.394;5.454;2023-02-28T07:01:52;2.30;;;2.30;;
26820;SDS011;37186;51.394;5.454;2023-02-28T07:04:53;2.30;;;2.30;;
26820;SDS011;37186;51.394;5.454;2023-02-28T07:07:53;2.30;;;2.30;;
26820;SDS011;37186;51.394;5.454;2023-02-28T07:10:54;2.50;;;2.50;;
26820;SDS011;37186;51.394;5.454;2023-02-28T07:13:56;2.20;;;2.20;;
26820;SDS011;37186;51.394;5.454;2023-02-28T07:16:57;2.20;;;2.20;;
26820;SDS011;37186;51.394;5.454;2023-02-28T07:19:57;2.13;;;2.13;;
26820;SDS011;37186;51.394;5.454;2023-02-28T07:22:58;2.30;;;2.30;;
26820;SDS011;37186;51.394;5.454;2023-02-28T07:25:59;2.43;;;2.43;;
26820;SDS011;37186;51.394;5.454;2023-02-28T07:28:59;2.47;;;2.47;;
26820;SDS011;37186;51.394;5.454;2023-02-28T07:32:00;2.10;;;2.10;;
26820;SDS011;37186;51.394;5.454;2023-02-28T07:35:00;2.30;;;2.30;;
26820;SDS011;37186;51.394;5.454;2023-02-28T07:38:01;2.20;;;2.20;;
26820;SDS011;37186;51.394;5.454;2023-02-28T07:41:03;2.20;;;2.20;;
26820;SDS011;37186;51.394;5.454;2023-02-28T07:44:04;2.20;;;2.20;;
26820;SDS011;37186;51.394;5.454;2023-02-28T07:47:05;2.20;;;2.20;;
26820;SDS011;37186;51.394;5.454;2023-02-28T07:50:08;2.50;;;2.50;;
26820;SDS011;37186;51.394;5.454;2023-02-28T07:53:11;2.23;;;2.23;;
26820;SDS011;37186;51.394;5.454;2023-02-28T07:56:12;2.50;;;2.50;;
26820;SDS011;37186;51.394;5.454;2023-02-28T07:59:12;2.33;;;2.33;;
26820;SDS011;37186;51.394;5.454;2023-02-28T08:02:16;2.50;;;2.50;;
26820;SDS011;37186;51.394;5.454;2023-02-28T08:05:18;2.43;;;2.43;;
26820;SDS011;37186;51.394;5.454;2023-02-28T08:08:18;2.50;;;2.50;;
26820;SDS011;37186;51.394;5.454;2023-02-28T08:11:19;2.33;;;2.33;;
26820;SDS011;37186;51.394;5.454;2023-02-28T08:14:19;2.10;;;2.10;;
26820;SDS011;37186;51.394;5.454;2023-02-28T08:17:20;2.37;;;2.37;;
26820;SDS011;37186;51.394;5.454;2023-02-28T08:20:21;2.40;;;2.40;;
26820;SDS011;37186;51.394;5.454;2023-02-28T08:23:22;2.30;;;2.30;;
26820;SDS011;37186;51.394;5.454;2023-02-28T08:26:22;2.30;;;2.30;;
26820;SDS011;37186;51.394;5.454;2023-02-28T08:29:23;2.30;;;2.30;;
26820;SDS011;37186;51.394;5.454;2023-02-28T08:32:23;2.30;;;2.30;;
26820;SDS011;37186;51.394;5.454;2023-02-28T08:35:24;2.30;;;2.30;;
26820;SDS011;37186;51.394;5.454;2023-02-28T08:38:24;2.20;;;2.20;;
26820;SDS011;37186;51.394;5.454;2023-02-28T08:41:26;2.20;;;2.20;;
26820;SDS011;37186;51.394;5.454;2023-02-28T08:44:27;2.20;;;2.20;;
26820;SDS011;37186;51.394;5.454;2023-02-28T08:47:27;2.30;;;2.30;;
26820;SDS011;37186;51.394;5.454;2023-02-28T08:50:28;2.30;;;2.30;;
26820;SDS011;37186;51.394;5.454;2023-02-28T08:53:29;2.60;;;2.60;;
26820;SDS011;37186;51.394;5.454;2023-02-28T08:56:29;2.40;;;2.40;;
26820;SDS011;37186;51.394;5.454;2023-02-28T08:59:30;2.30;;;2.30;;
26820;SDS011;37186;51.394;5.454;2023-02-28T09:02:31;2.40;;;2.40;;
26820;SDS011;37186;51.394;5.454;2023-02-28T09:05:32;2.33;;;2.33;;
26820;SDS011;37186;51.394;5.454;2023-02-28T09:08:32;2.50;;;2.50;;
26820;SDS011;37186;51.394;5.454;2023-02-28T09:11:34;2.30;;;2.30;;
26820;SDS011;37186;51.394;5.454;2023-02-28T09:14:35;2.50;;;2.50;;
26820;SDS011;37186;51.394;5.454;2023-02-28T09:17:35;2.40;;;2.40;;
26820;SDS011;37186;51.394;5.454;2023-02-28T09:20:39;2.50;;;2.50;;
26820;SDS011;37186;51.394;5.454;2023-02-28T09:23:42;2.20;;;2.20;;
26820;SDS011;37186;51.394;5.454;2023-02-28T09:26:43;2.30;;;2.30;;
26820;SDS011;37186;51.394;5.454;2023-02-28T09:29:44;2.27;;;2.27;;
26820;SDS011;37186;51.394;5.454;2023-02-28T09:32:44;2.40;;;2.40;;
26820;SDS011;37186;51.394;5.454;2023-02-28T09:35:57;2.40;;;2.40;;
26820;SDS011;37186;51.394;5.454;2023-02-28T09:38:59;2.20;;;2.20;;
26820;SDS011;37186;51.394;5.454;2023-02-28T09:42:00;2.30;;;2.30;;
26820;SDS011;37186;51.394;5.454;2023-02-28T09:45:05;2.20;;;2.20;;
26820;SDS011;37186;51.394;5.454;2023-02-28T09:48:24;2.20;;;2.20;;
26820;SDS011;37186;51.394;5.454;2023-02-28T09:51:51;2.30;;;2.30;;
26820;SDS011;37186;51.394;5.454;2023-02-28T09:55:18;2.40;;;2.40;;
26820;SDS011;37186;51.394;5.454;2023-02-28T09:58:31;2.20;;;2.20;;
26820;SDS011;37186;51.394;5.454;2023-02-28T10:01:44;2.10;;;2.10;;
26820;SDS011;37186;51.394;5.454;2023-02-28T10:04:54;2.20;;;2.20;;
26820;SDS011;37186;51.394;5.454;2023-02-28T10:08:00;2.20;;;2.20;;
26820;SDS011;37186;51.394;5.454;2023-02-28T10:11:13;2.20;;;2.20;;
26820;SDS011;37186;51.394;5.454;2023-02-28T10:14:21;2.30;;;2.30;;
26820;SDS011;37186;51.394;5.454;2023-02-28T10:17:25;2.30;;;2.30;;
26820;SDS011;37186;51.394;5.454;2023-02-28T10:20:30;2.10;;;2.10;;
26820;SDS011;37186;51.394;5.454;2023-02-28T10:23:35;2.30;;;2.30;;
26820;SDS011;37186;51.394;5.454;2023-02-28T10:26:36;2.40;;;2.40;;
26820;SDS011;37186;51.394;5.454;2023-02-28T10:29:37;2.20;;;2.20;;
26820;SDS011;37186;51.394;5.454;2023-02-28T10:32:46;2.40;;;2.40;;
26820;SDS011;37186;51.394;5.454;2023-02-28T10:35:51;2.20;;;2.20;;
26820;SDS011;37186;51.394;5.454;2023-02-28T10:38:52;2.10;;;2.10;;
26820;SDS011;37186;51.394;5.454;2023-02-28T10:41:52;2.20;;;2.20;;
26820;SDS011;37186;51.394;5.454;2023-02-28T10:51:18;2.23;;;2.23;;
26820;SDS011;37186;51.394;5.454;2023-02-28T10:54:23;2.40;;;2.40;;
26820;SDS011;37186;51.394;5.454;2023-02-28T10:57:30;2.40;;;2.40;;
26820;SDS011;37186;51.394;5.454;2023-02-28T11:00:33;2.37;;;2.37;;
26820;SDS011;37186;51.394;5.454;2023-02-28T11:03:35;2.43;;;2.43;;
26820;SDS011;37186;51.394;5.454;2023-02-28T11:06:36;2.40;;;2.40;;
26820;SDS011;37186;51.394;5.454;2023-02-28T11:09:39;2.80;;;2.70;;
26820;SDS011;37186;51.394;5.454;2023-02-28T11:12:40;2.40;;;2.40;;
26820;SDS011;37186;51.394;5.454;2023-02-28T11:15:42;2.67;;;2.67;;
26820;SDS011;37186;51.394;5.454;2023-02-28T11:18:52;2.33;;;2.33;;
26820;SDS011;37186;51.394;5.454;2023-02-28T11:21:57;2.40;;;2.40;;
26820;SDS011;37186;51.394;5.454;2023-02-28T11:25:01;2.50;;;2.50;;
26820;SDS011;37186;51.394;5.454;2023-02-28T11:28:29;2.43;;;2.43;;
26820;SDS011;37186;51.394;5.454;2023-02-28T11:31:28;2.60;;;2.60;;
26820;SDS011;37186;51.394;5.454;2023-02-28T11:34:30;2.50;;;2.50;;
26820;SDS011;37186;51.394;5.454;2023-02-28T11:37:31;2.53;;;2.53;;
26820;SDS011;37186;51.394;5.454;2023-02-28T11:40:39;2.60;;;2.60;;
26820;SDS011;37186;51.394;5.454;2023-02-28T11:44:00;2.70;;;2.70;;
26820;SDS011;37186;51.394;5.454;2023-02-28T11:53:51;2.43;;;2.43;;
26820;SDS011;37186;51.394;5.454;2023-02-28T12:00:38;2.30;;;2.30;;
26820;SDS011;37186;51.394;5.454;2023-02-28T12:13:21;2.33;;;2.33;;
26820;SDS011;37186;51.394;5.454;2023-02-28T12:23:17;2.30;;;2.30;;
26820;SDS011;37186;51.394;5.454;2023-02-28T12:29:45;2.57;;;2.57;;
26820;SDS011;37186;51.394;5.454;2023-02-28T12:33:03;2.40;;;2.40;;
26820;SDS011;37186;51.394;5.454;2023-02-28T12:36:11;2.50;;;2.50;;
26820;SDS011;37186;51.394;5.454;2023-02-28T12:39:22;2.70;;;2.60;;
26820;SDS011;37186;51.394;5.454;2023-02-28T12:42:27;2.60;;;2.60;;
26820;SDS011;37186;51.394;5.454;2023-02-28T12:45:40;2.57;;;2.57;;
26820;SDS011;37186;51.394;5.454;2023-02-28T12:48:55;2.57;;;2.57;;
26820;SDS011;37186;51.394;5.454;2023-02-28T12:51:59;2.70;;;2.70;;
26820;SDS011;37186;51.394;5.454;2023-02-28T12:55:03;2.60;;;2.60;;
26820;SDS011;37186;51.394;5.454;2023-02-28T13:01:36;2.50;;;2.50;;
26820;SDS011;37186;51.394;5.454;2023-02-28T13:11:50;2.50;;;2.50;;
26820;SDS011;37186;51.394;5.454;2023-02-28T13:15:02;2.40;;;2.40;;
26820;SDS011;37186;51.394;5.454;2023-02-28T13:18:26;2.43;;;2.43;;
26820;SDS011;37186;51.394;5.454;2023-02-28T13:21:46;2.50;;;2.50;;
26820;SDS011;37186;51.394;5.454;2023-02-28T13:24:56;2.27;;;2.27;;
26820;SDS011;37186;51.394;5.454;2023-02-28T13:27:57;2.50;;;2.50;;
26820;SDS011;37186;51.394;5.454;2023-02-28T13:31:04;2.37;;;2.37;;
26820;SDS011;37186;51.394;5.454;2023-02-28T13:34:12;2.33;;;2.33;;
26820;SDS011;37186;51.394;5.454;2023-02-28T13:40:28;2.30;;;2.30;;
26820;SDS011;37186;51.394;5.454;2023-02-28T13:50:21;2.50;;;2.50;;
26820;SDS011;37186;51.394;5.454;2023-02-28T13:53:34;2.63;;;2.60;;
26820;SDS011;37186;51.394;5.454;2023-02-28T14:07:15;2.40;;;2.40;;
26820;SDS011;37186;51.394;5.454;2023-02-28T14:10:27;2.83;;;2.73;;
26820;SDS011;37186;51.394;5.454;2023-02-28T14:13:38;2.97;;;2.87;;
26820;SDS011;37186;51.394;5.454;2023-02-28T14:16:47;3.13;;;3.03;;
26820;SDS011;37186;51.394;5.454;2023-02-28T14:19:50;3.47;;;3.37;;
26820;SDS011;37186;51.394;5.454;2023-02-28T14:22:58;3.40;;;3.30;;
26820;SDS011;37186;51.394;5.454;2023-02-28T14:32:40;2.90;;;2.80;;
26820;SDS011;37186;51.394;5.454;2023-02-28T14:38:56;3.00;;;2.90;;
26820;SDS011;37186;51.394;5.454;2023-02-28T14:41:57;3.10;;;3.00;;
26820;SDS011;37186;51.394;5.454;2023-02-28T14:45:04;3.07;;;2.97;;
26820;SDS011;37186;51.394;5.454;2023-02-28T14:48:08;3.13;;;3.03;;
26820;SDS011;37186;51.394;5.454;2023-02-28T14:51:09;2.93;;;2.83;;
26820;SDS011;37186;51.394;5.454;2023-02-28T14:54:13;3.17;;;3.07;;
26820;SDS011;37186;51.394;5.454;2023-02-28T14:57:30;2.70;;;2.70;;
26820;SDS011;37186;51.394;5.454;2023-02-28T15:00:34;3.00;;;2.90;;
26820;SDS011;37186;51.394;5.454;2023-02-28T15:03:39;2.83;;;2.73;;
26820;SDS011;37186;51.394;5.454;2023-02-28T15:06:41;2.63;;;2.63;;
26820;SDS011;37186;51.394;5.454;2023-02-28T15:09:42;3.00;;;2.90;;
26820;SDS011;37186;51.394;5.454;2023-02-28T15:12:51;3.23;;;3.13;;
26820;SDS011;37186;51.394;5.454;2023-02-28T15:15:56;3.70;;;3.60;;
26820;SDS011;37186;51.394;5.454;2023-02-28T15:19:01;3.70;;;3.60;;
26820;SDS011;37186;51.394;5.454;2023-02-28T15:22:04;3.40;;;3.30;;
26820;SDS011;37186;51.394;5.454;2023-02-28T15:25:09;3.60;;;3.50;;
26820;SDS011;37186;51.394;5.454;2023-02-28T15:28:14;3.90;;;3.80;;
26820;SDS011;37186;51.394;5.454;2023-02-28T15:32:02;3.90;;;3.80;;
26820;SDS011;37186;51.394;5.454;2023-02-28T15:34:48;3.97;;;3.87;;
26820;SDS011;37186;51.394;5.454;2023-02-28T15:40:54;3.50;;;3.40;;
26820;SDS011;37186;51.394;5.454;2023-02-28T15:50:27;3.30;;;3.20;;
26820;SDS011;37186;51.394;5.454;2023-02-28T15:53:30;3.03;;;2.93;;
26820;SDS011;37186;51.394;5.454;2023-02-28T15:56:51;2.90;;;2.80;;
26820;SDS011;37186;51.394;5.454;2023-02-28T15:59:54;2.63;;;2.63;;
26820;SDS011;37186;51.394;5.454;2023-02-28T16:02:57;2.97;;;2.87;;
26820;SDS011;37186;51.394;5.454;2023-02-28T16:06:08;2.90;;;2.80;;
26820;SDS011;37186;51.394;5.454;2023-02-28T16:09:21;2.87;;;2.77;;
26820;SDS011;37186;51.394;5.454;2023-02-28T16:12:24;2.93;;;2.83;;
26820;SDS011;37186;51.394;5.454;2023-02-28T16:15:31;3.07;;;2.97;;
26820;SDS011;37186;51.394;5.454;2023-02-28T16:18:41;2.97;;;2.87;;
26820;SDS011;37186;51.394;5.454;2023-02-28T16:21:41;3.17;;;3.07;;
26820;SDS011;37186;51.394;5.454;2023-02-28T16:24:42;3.20;;;3.10;;
26820;SDS011;37186;51.394;5.454;2023-02-28T16:27:43;3.50;;;3.40;;
26820;SDS011;37186;51.394;5.454;2023-02-28T16:30:50;3.30;;;3.20;;
26820;SDS011;37186;51.394;5.454;2023-02-28T16:33:51;3.40;;;3.30;;
26820;SDS011;37186;51.394;5.454;2023-02-28T16:36:52;3.53;;;3.43;;
26820;SDS011;37186;51.394;5.454;2023-02-28T16:39:53;3.33;;;3.23;;
26820;SDS011;37186;51.394;5.454;2023-02-28T16:42:55;3.13;;;3.03;;
26820;SDS011;37186;51.394;5.454;2023-02-28T16:45:59;3.20;;;3.10;;
26820;SDS011;37186;51.394;5.454;2023-02-28T16:49:01;3.00;;;2.90;;
26820;SDS011;37186;51.394;5.454;2023-02-28T16:52:02;3.23;;;3.13;;
26820;SDS011;37186;51.394;5.454;2023-02-28T16:55:02;3.93;;;3.83;;
26820;SDS011;37186;51.394;5.454;2023-02-28T16:58:03;4.67;;;4.57;;
26820;SDS011;37186;51.394;5.454;2023-02-28T17:01:03;5.53;;;5.43;;
26820;SDS011;37186;51.394;5.454;2023-02-28T17:04:04;5.20;;;5.10;;
26820;SDS011;37186;51.394;5.454;2023-02-28T17:07:07;4.97;;;4.87;;
26820;SDS011;37186;51.394;5.454;2023-02-28T17:13:16;3.60;;;3.50;;
26820;SDS011;37186;51.394;5.454;2023-02-28T17:16:22;3.30;;;3.20;;
26820;SDS011;37186;51.394;5.454;2023-02-28T17:19:32;3.03;;;2.93;;
26820;SDS011;37186;51.394;5.454;2023-02-28T17:22:33;3.00;;;2.90;;
26820;SDS011;37186;51.394;5.454;2023-02-28T17:25:34;2.90;;;2.80;;
26820;SDS011;37186;51.394;5.454;2023-02-28T17:28:34;2.63;;;2.63;;
26820;SDS011;37186;51.394;5.454;2023-02-28T17:31:35;2.80;;;2.70;;
26820;SDS011;37186;51.394;5.454;2023-02-28T17:34:38;3.10;;;3.00;;
26820;SDS011;37186;51.394;5.454;2023-02-28T17:37:39;3.20;;;3.10;;
26820;SDS011;37186;51.394;5.454;2023-02-28T17:40:39;3.27;;;3.17;;
26820;SDS011;37186;51.394;5.454;2023-02-28T17:43:40;3.50;;;3.40;;
26820;SDS011;37186;51.394;5.454;2023-02-28T17:46:40;3.50;;;3.40;;
26820;SDS011;37186;51.394;5.454;2023-02-28T17:49:43;3.30;;;3.20;;
26820;SDS011;37186;51.394;5.454;2023-02-28T17:52:44;3.23;;;3.13;;
26820;SDS011;37186;51.394;5.454;2023-02-28T17:55:44;3.03;;;2.93;;
26820;SDS011;37186;51.394;5.454;2023-02-28T17:58:45;3.00;;;2.90;;
26820;SDS011;37186;51.394;5.454;2023-02-28T18:01:45;2.90;;;2.80;;
26820;SDS011;37186;51.394;5.454;2023-02-28T18:04:46;2.93;;;2.83;;
26820;SDS011;37186;51.394;5.454;2023-02-28T18:07:46;2.60;;;2.60;;
26820;SDS011;37186;51.394;5.454;2023-02-28T18:10:47;2.50;;;2.50;;
26820;SDS011;37186;51.394;5.454;2023-02-28T18:13:49;2.43;;;2.43;;
26820;SDS011;37186;51.394;5.454;2023-02-28T18:16:52;2.27;;;2.27;;
26820;SDS011;37186;51.394;5.454;2023-02-28T18:19:53;2.30;;;2.30;;
26820;SDS011;37186;51.394;5.454;2023-02-28T18:22:54;2.50;;;2.50;;
26820;SDS011;37186;51.394;5.454;2023-02-28T18:25:54;2.40;;;2.40;;
26820;SDS011;37186;51.394;5.454;2023-02-28T18:28:55;2.40;;;2.40;;
26820;SDS011;37186;51.394;5.454;2023-02-28T18:31:55;2.87;;;2.77;;
26820;SDS011;37186;51.394;5.454;2023-02-28T18:34:56;2.50;;;2.50;;
26820;SDS011;37186;51.394;5.454;2023-02-28T18:37:57;2.40;;;2.40;;
26820;SDS011;37186;51.394;5.454;2023-02-28T18:40:58;2.40;;;2.40;;
26820;SDS011;37186;51.394;5.454;2023-02-28T18:44:01;2.40;;;2.40;;
26820;SDS011;37186;51.394;5.454;2023-02-28T18:47:01;2.40;;;2.40;;
26820;SDS011;37186;51.394;5.454;2023-02-28T18:50:02;2.40;;;2.40;;
26820;SDS011;37186;51.394;5.454;2023-02-28T18:53:03;2.60;;;2.60;;
26820;SDS011;37186;51.394;5.454;2023-02-28T18:56:03;2.40;;;2.40;;
26820;SDS011;37186;51.394;5.454;2023-02-28T18:59:05;2.40;;;2.40;;
26820;SDS011;37186;51.394;5.454;2023-02-28T19:02:07;2.50;;;2.50;;
26820;SDS011;37186;51.394;5.454;2023-02-28T19:05:09;2.40;;;2.40;;
26820;SDS011;37186;51.394;5.454;2023-02-28T19:08:11;2.40;;;2.40;;
26820;SDS011;37186;51.394;5.454;2023-02-28T19:11:14;2.50;;;2.50;;
26820;SDS011;37186;51.394;5.454;2023-02-28T19:14:16;2.30;;;2.30;;
26820;SDS011;37186;51.394;5.454;2023-02-28T19:17:17;2.50;;;2.50;;
26820;SDS011;37186;51.394;5.454;2023-02-28T19:20:17;2.50;;;2.50;;
26820;SDS011;37186;51.394;5.454;2023-02-28T19:23:18;2.50;;;2.50;;
26820;SDS011;37186;51.394;5.454;2023-02-28T19:26:20;2.50;;;2.50;;
26820;SDS011;37186;51.394;5.454;2023-02-28T19:29:22;2.50;;;2.50;;
26820;SDS011;37186;51.394;5.454;2023-02-28T19:32:22;2.60;;;2.60;;
26820;SDS011;37186;51.394;5.454;2023-02-28T19:35:23;2.30;;;2.30;;
26820;SDS011;37186;51.394;5.454;2023-02-28T19:38:24;2.40;;;2.40;;
26820;SDS011;37186;51.394;5.454;2023-02-28T19:41:24;2.47;;;2.47;;
26820;SDS011;37186;51.394;5.454;2023-02-28T19:44:25;2.20;;;2.20;;
26820;SDS011;37186;51.394;5.454;2023-02-28T19:47:27;2.40;;;2.40;;
26820;SDS011;37186;51.394;5.454;2023-02-28T19:50:29;2.50;;;2.50;;
26820;SDS011;37186;51.394;5.454;2023-02-28T19:53:31;2.33;;;2.33;;
26820;SDS011;37186;51.394;5.454;2023-02-28T19:56:32;2.30;;;2.30;;
26820;SDS011;37186;51.394;5.454;2023-02-28T19:59:33;2.20;;;2.20;;
26820;SDS011;37186;51.394;5.454;2023-02-28T20:02:33;2.50;;;2.50;;
26820;SDS011;37186;51.394;5.454;2023-02-28T20:05:34;2.33;;;2.33;;
26820;SDS011;37186;51.394;5.454;2023-02-28T20:08:36;2.40;;;2.40;;
26820;SDS011;37186;51.394;5.454;2023-02-28T20:11:37;2.40;;;2.40;;
26820;SDS011;37186;51.394;5.454;2023-02-28T20:14:38;2.50;;;2.50;;
26820;SDS011;37186;51.394;5.454;2023-02-28T20:17:38;2.30;;;2.30;;